SBI207 ULAA-ULLI
Flight info
| Callsign | SBI207 |
|---|---|
| Flight time | 1h 15m |
| Altitude | 36000 |
| Route | MAKOG3J MAKOG T821 ROGID M856 GIKUR T458 BEPOL BEPOL1B |
| Aircraft | A321/M-SDE3FGHIRWY/LB1 |
Departure
| Time | 2026-04-26 13:27 |
|---|---|
| Airport | Talagi Airport (ULAA) |
Arrival
| Time | 2026-04-26 14:42 |
|---|---|
| Airport | Pulkovo Airport (ULLI) |
| Time | Latitude | Longitude | Altitude | Speed | Heading |
|---|---|---|---|---|---|
| 2026-04-26 12:58 | 64.59664 | 40.71474 | 41 ft | 0 kts | 187° |
| 2026-04-26 13:13 | 64.59665 | 40.71474 | 41 ft | 1 kts | 186° |
| 2026-04-26 13:13 | 64.59679 | 40.71482 | 41 ft | 2 kts | 207° |
| 2026-04-26 13:13 | 64.59692 | 40.71501 | 41 ft | 2 kts | 223° |
| 2026-04-26 13:13 | 64.59701 | 40.71529 | 41 ft | 2 kts | 241° |
| 2026-04-26 13:14 | 64.59708 | 40.71562 | 41 ft | 2 kts | 258° |
| 2026-04-26 13:14 | 64.59708 | 40.71596 | 41 ft | 2 kts | 276° |
| 2026-04-26 13:14 | 64.59706 | 40.71631 | 41 ft | 2 kts | 278° |
| 2026-04-26 13:14 | 64.59705 | 40.71643 | 41 ft | 0 kts | 276° |
| 2026-04-26 13:16 | 64.59706 | 40.71640 | 41 ft | 0 kts | 276° |
| 2026-04-26 13:17 | 64.59712 | 40.71529 | 41 ft | 5 kts | 278° |
| 2026-04-26 13:17 | 64.59718 | 40.71413 | 41 ft | 8 kts | 275° |
| 2026-04-26 13:18 | 64.59734 | 40.71072 | 41 ft | 7 kts | 277° |
| 2026-04-26 13:18 | 64.59747 | 40.70934 | 41 ft | 10 kts | 277° |
| 2026-04-26 13:18 | 64.59766 | 40.70544 | 41 ft | 10 kts | 277° |
| 2026-04-26 13:19 | 64.59765 | 40.70414 | 41 ft | 9 kts | 243° |
| 2026-04-26 13:19 | 64.59753 | 40.70266 | 41 ft | 11 kts | 307° |
| 2026-04-26 13:19 | 64.59802 | 40.70159 | 41 ft | 8 kts | 328° |
| 2026-04-26 13:19 | 64.59867 | 40.70145 | 41 ft | 9 kts | 346° |
| 2026-04-26 13:20 | 64.59895 | 40.69991 | 42 ft | 12 kts | 277° |
| 2026-04-26 13:20 | 64.59906 | 40.69778 | 41 ft | 14 kts | 276° |
| 2026-04-26 13:20 | 64.59917 | 40.69532 | 41 ft | 16 kts | 277° |
| 2026-04-26 13:20 | 64.59930 | 40.69251 | 39 ft | 18 kts | 276° |
| 2026-04-26 13:21 | 64.59942 | 40.69073 | 38 ft | 9 kts | 294° |
| 2026-04-26 13:21 | 64.59982 | 40.69027 | 38 ft | 11 kts | 360° |
| 2026-04-26 13:21 | 64.60017 | 40.69034 | 38 ft | 0 kts | 7° |
| 2026-04-26 13:24 | 64.60029 | 40.69038 | 38 ft | 3 kts | 7° |
| 2026-04-26 13:24 | 64.60059 | 40.69046 | 38 ft | 5 kts | 7° |
| 2026-04-26 13:25 | 64.60107 | 40.69060 | 38 ft | 8 kts | 7° |
| 2026-04-26 13:25 | 64.60149 | 40.69144 | 38 ft | 9 kts | 88° |
| 2026-04-26 13:25 | 64.60146 | 40.69213 | 38 ft | 0 kts | 97° |
| 2026-04-26 13:26 | 64.60146 | 40.69214 | 38 ft | 0 kts | 97° |
| 2026-04-26 13:26 | 64.60132 | 40.69484 | 40 ft | 49 kts | 97° |
| 2026-04-26 13:26 | 64.60066 | 40.70846 | 42 ft | 118 kts | 97° |
| 2026-04-26 13:26 | 64.59966 | 40.73164 | 179 ft | 160 kts | 93° |
| 2026-04-26 13:27 | 64.59876 | 40.75726 | 862 ft | 159 kts | 94° |
| 2026-04-26 13:27 | 64.59747 | 40.78239 | 1589 ft | 160 kts | 96° |
| 2026-04-26 13:27 | 64.59601 | 40.80814 | 2143 ft | 164 kts | 99° |
| 2026-04-26 13:27 | 64.59070 | 40.83215 | 2414 ft | 183 kts | 136° |
| 2026-04-26 13:28 | 64.57847 | 40.84393 | 2718 ft | 204 kts | 173° |
| 2026-04-26 13:28 | 64.56435 | 40.83515 | 3004 ft | 226 kts | 213° |
| 2026-04-26 13:28 | 64.55409 | 40.80604 | 3292 ft | 248 kts | 239° |
| 2026-04-26 13:28 | 64.54506 | 40.77021 | 3698 ft | 264 kts | 238° |
| 2026-04-26 13:29 | 64.53539 | 40.73308 | 4327 ft | 272 kts | 237° |
| 2026-04-26 13:29 | 64.52890 | 40.70867 | 4869 ft | 272 kts | 237° |
| 2026-04-26 13:29 | 64.51563 | 40.65926 | 5998 ft | 272 kts | 236° |
| 2026-04-26 13:29 | 64.50565 | 40.62249 | 6797 ft | 274 kts | 236° |
| 2026-04-26 13:30 | 64.49542 | 40.58506 | 7603 ft | 276 kts | 236° |
| 2026-04-26 13:30 | 64.48524 | 40.54789 | 8401 ft | 277 kts | 236° |
| 2026-04-26 13:30 | 64.47473 | 40.50962 | 9209 ft | 280 kts | 236° |
| 2026-04-26 13:30 | 64.46391 | 40.47034 | 10013 ft | 282 kts | 237° |
| 2026-04-26 13:31 | 64.45763 | 40.44762 | 10331 ft | 289 kts | 236° |
| 2026-04-26 13:31 | 64.44656 | 40.40752 | 10725 ft | 304 kts | 237° |
| 2026-04-26 13:31 | 64.43510 | 40.36610 | 11363 ft | 309 kts | 237° |
| 2026-04-26 13:31 | 64.42358 | 40.32452 | 12093 ft | 311 kts | 235° |
| 2026-04-26 13:32 | 64.41196 | 40.28262 | 12809 ft | 313 kts | 236° |
| 2026-04-26 13:32 | 64.40015 | 40.24006 | 13518 ft | 315 kts | 236° |
| 2026-04-26 13:32 | 64.38843 | 40.19797 | 14188 ft | 318 kts | 236° |
| 2026-04-26 13:32 | 64.37643 | 40.15495 | 14856 ft | 320 kts | 236° |
| 2026-04-26 13:33 | 64.36440 | 40.11189 | 15496 ft | 322 kts | 236° |
| 2026-04-26 13:33 | 64.35227 | 40.06864 | 16140 ft | 324 kts | 236° |
| 2026-04-26 13:33 | 64.34002 | 40.02498 | 16764 ft | 325 kts | 236° |
| 2026-04-26 13:33 | 64.32783 | 39.98163 | 17382 ft | 327 kts | 236° |
| 2026-04-26 13:34 | 64.31544 | 39.93765 | 17992 ft | 329 kts | 236° |
| 2026-04-26 13:34 | 64.30300 | 39.89358 | 18587 ft | 331 kts | 236° |
| 2026-04-26 13:34 | 64.29046 | 39.84927 | 19146 ft | 333 kts | 236° |
| 2026-04-26 13:34 | 64.28204 | 39.81954 | 19515 ft | 335 kts | 236° |
| 2026-04-26 13:35 | 64.26512 | 39.75996 | 20278 ft | 337 kts | 236° |
| 2026-04-26 13:35 | 64.25230 | 39.71491 | 20827 ft | 339 kts | 236° |
| 2026-04-26 13:35 | 64.23940 | 39.66962 | 21358 ft | 342 kts | 235° |
| 2026-04-26 13:35 | 64.22653 | 39.62461 | 21895 ft | 343 kts | 236° |
| 2026-04-26 13:36 | 64.21341 | 39.57877 | 22429 ft | 345 kts | 236° |
| 2026-04-26 13:36 | 64.20021 | 39.53276 | 22910 ft | 348 kts | 235° |
| 2026-04-26 13:36 | 64.18690 | 39.48651 | 23409 ft | 350 kts | 235° |
| 2026-04-26 13:36 | 64.17345 | 39.43984 | 23920 ft | 352 kts | 235° |
| 2026-04-26 13:37 | 64.15998 | 39.39320 | 24398 ft | 354 kts | 236° |
| 2026-04-26 13:37 | 64.14642 | 39.34636 | 24854 ft | 356 kts | 234° |
| 2026-04-26 13:37 | 64.13273 | 39.29905 | 25307 ft | 358 kts | 234° |
| 2026-04-26 13:37 | 64.11890 | 39.25145 | 25736 ft | 361 kts | 234° |
| 2026-04-26 13:38 | 64.10500 | 39.20375 | 26147 ft | 363 kts | 234° |
| 2026-04-26 13:38 | 64.09108 | 39.15606 | 26531 ft | 366 kts | 234° |
| 2026-04-26 13:38 | 64.07696 | 39.10778 | 26912 ft | 368 kts | 234° |
| 2026-04-26 13:38 | 64.06251 | 39.05969 | 27284 ft | 370 kts | 232° |
| 2026-04-26 13:39 | 64.04685 | 39.01275 | 27648 ft | 372 kts | 231° |
| 2026-04-26 13:39 | 64.03116 | 38.96637 | 28000 ft | 375 kts | 231° |
| 2026-04-26 13:39 | 64.01514 | 38.91907 | 28354 ft | 377 kts | 231° |
| 2026-04-26 13:39 | 63.99922 | 38.87219 | 28693 ft | 379 kts | 231° |
| 2026-04-26 13:40 | 63.98307 | 38.82471 | 28997 ft | 381 kts | 231° |
| 2026-04-26 13:40 | 63.96691 | 38.77735 | 29268 ft | 384 kts | 231° |
| 2026-04-26 13:40 | 63.95055 | 38.72948 | 29531 ft | 386 kts | 231° |
| 2026-04-26 13:40 | 63.93391 | 38.68097 | 29810 ft | 388 kts | 231° |
| 2026-04-26 13:41 | 63.91738 | 38.63284 | 30059 ft | 390 kts | 231° |
| 2026-04-26 13:41 | 63.90081 | 38.58472 | 30317 ft | 392 kts | 231° |
| 2026-04-26 13:41 | 63.88406 | 38.53618 | 30595 ft | 393 kts | 231° |
| 2026-04-26 13:41 | 63.86701 | 38.48688 | 30851 ft | 395 kts | 231° |
| 2026-04-26 13:42 | 63.85012 | 38.43813 | 31102 ft | 397 kts | 231° |
| 2026-04-26 13:42 | 63.83314 | 38.38924 | 31312 ft | 399 kts | 231° |
| 2026-04-26 13:42 | 63.81611 | 38.34030 | 31438 ft | 401 kts | 230° |
| 2026-04-26 13:42 | 63.79878 | 38.29065 | 31555 ft | 404 kts | 230° |
| 2026-04-26 13:43 | 63.78127 | 38.24058 | 31672 ft | 406 kts | 230° |
| 2026-04-26 13:43 | 63.76379 | 38.19067 | 31784 ft | 409 kts | 230° |
| 2026-04-26 13:43 | 63.74616 | 38.14047 | 31914 ft | 410 kts | 230° |
| 2026-04-26 13:43 | 63.72852 | 38.09036 | 32062 ft | 411 kts | 230° |
| 2026-04-26 13:44 | 63.71079 | 38.04009 | 32190 ft | 412 kts | 230° |
| 2026-04-26 13:44 | 63.69290 | 37.98949 | 32324 ft | 413 kts | 230° |
| 2026-04-26 13:44 | 63.67504 | 37.93908 | 32449 ft | 414 kts | 230° |
| 2026-04-26 13:44 | 63.65707 | 37.88846 | 32614 ft | 415 kts | 231° |
| 2026-04-26 13:45 | 63.63905 | 37.83786 | 32764 ft | 417 kts | 231° |
| 2026-04-26 13:45 | 63.62095 | 37.78713 | 32906 ft | 418 kts | 231° |
| 2026-04-26 13:45 | 63.60284 | 37.73646 | 33050 ft | 419 kts | 231° |
| 2026-04-26 13:45 | 63.58470 | 37.68584 | 33175 ft | 421 kts | 231° |
| 2026-04-26 13:46 | 63.56628 | 37.63455 | 33318 ft | 422 kts | 231° |
| 2026-04-26 13:46 | 63.54803 | 37.58383 | 33508 ft | 423 kts | 231° |
| 2026-04-26 13:46 | 63.52959 | 37.53267 | 33715 ft | 424 kts | 231° |
| 2026-04-26 13:46 | 63.51114 | 37.48163 | 33916 ft | 425 kts | 231° |
| 2026-04-26 13:47 | 63.49249 | 37.43015 | 34102 ft | 426 kts | 231° |
| 2026-04-26 13:47 | 63.47404 | 37.37939 | 34266 ft | 427 kts | 231° |
| 2026-04-26 13:47 | 63.45526 | 37.32780 | 34435 ft | 429 kts | 230° |
| 2026-04-26 13:47 | 63.43642 | 37.27623 | 34601 ft | 430 kts | 230° |
| 2026-04-26 13:48 | 63.41741 | 37.22427 | 34762 ft | 431 kts | 230° |
| 2026-04-26 13:48 | 63.39863 | 37.17305 | 34912 ft | 433 kts | 230° |
| 2026-04-26 13:48 | 63.37957 | 37.12116 | 35058 ft | 434 kts | 230° |
| 2026-04-26 13:48 | 63.36039 | 37.06907 | 35203 ft | 436 kts | 230° |
| 2026-04-26 13:49 | 63.34123 | 37.01716 | 35332 ft | 437 kts | 230° |
| 2026-04-26 13:49 | 63.32214 | 36.96553 | 35455 ft | 439 kts | 230° |
| 2026-04-26 13:49 | 63.30269 | 36.91308 | 35495 ft | 441 kts | 230° |
| 2026-04-26 13:50 | 63.26381 | 36.80866 | 35498 ft | 441 kts | 230° |
| 2026-04-26 13:50 | 63.22457 | 36.70468 | 35498 ft | 441 kts | 228° |
| 2026-04-26 13:51 | 63.18165 | 36.60863 | 35495 ft | 441 kts | 222° |
| 2026-04-26 13:51 | 63.13634 | 36.51849 | 35489 ft | 441 kts | 222° |
| 2026-04-26 13:52 | 63.09095 | 36.42806 | 35482 ft | 442 kts | 222° |
| 2026-04-26 13:52 | 63.04549 | 36.33798 | 35486 ft | 442 kts | 221° |
| 2026-04-26 13:53 | 62.99979 | 36.24786 | 35495 ft | 443 kts | 221° |
| 2026-04-26 13:53 | 62.95388 | 36.15773 | 35486 ft | 443 kts | 221° |
| 2026-04-26 13:54 | 62.90807 | 36.06822 | 35477 ft | 442 kts | 221° |
| 2026-04-26 13:54 | 62.86228 | 35.97893 | 35465 ft | 442 kts | 222° |
| 2026-04-26 13:55 | 62.80166 | 35.85976 | 35463 ft | 442 kts | 222° |
| 2026-04-26 13:56 | 62.72574 | 35.71149 | 35456 ft | 443 kts | 221° |
| 2026-04-26 13:56 | 62.67987 | 35.62251 | 35451 ft | 443 kts | 222° |
| 2026-04-26 13:57 | 62.63387 | 35.53364 | 35456 ft | 444 kts | 222° |
| 2026-04-26 13:57 | 62.58789 | 35.44519 | 35454 ft | 443 kts | 222° |
| 2026-04-26 13:58 | 62.54231 | 35.35789 | 35453 ft | 442 kts | 222° |
| 2026-04-26 13:58 | 62.49607 | 35.26969 | 35457 ft | 443 kts | 221° |
| 2026-04-26 13:59 | 62.45026 | 35.18269 | 35450 ft | 443 kts | 221° |
| 2026-04-26 13:59 | 62.40391 | 35.09512 | 35445 ft | 443 kts | 221° |
| 2026-04-26 14:00 | 62.31082 | 34.92284 | 35440 ft | 444 kts | 220° |
| 2026-04-26 14:01 | 62.26404 | 34.83703 | 35437 ft | 444 kts | 220° |
| 2026-04-26 14:01 | 62.21724 | 34.75148 | 35433 ft | 444 kts | 220° |
| 2026-04-26 14:02 | 62.17053 | 34.66645 | 35428 ft | 444 kts | 220° |
| 2026-04-26 14:02 | 62.12350 | 34.58119 | 35427 ft | 444 kts | 220° |
| 2026-04-26 14:03 | 62.07659 | 34.49653 | 35418 ft | 445 kts | 220° |
| 2026-04-26 14:03 | 62.02967 | 34.41218 | 35414 ft | 445 kts | 220° |
| 2026-04-26 14:04 | 61.98235 | 34.32749 | 35418 ft | 445 kts | 220° |
| 2026-04-26 14:04 | 61.93500 | 34.24312 | 35417 ft | 445 kts | 220° |
| 2026-04-26 14:05 | 61.88990 | 34.15441 | 35423 ft | 445 kts | 226° |
| 2026-04-26 14:05 | 61.84948 | 34.05535 | 35415 ft | 445 kts | 232° |
| 2026-04-26 14:06 | 61.81220 | 33.95091 | 35413 ft | 446 kts | 233° |
| 2026-04-26 14:06 | 61.77490 | 33.84715 | 35413 ft | 445 kts | 233° |
| 2026-04-26 14:07 | 61.73769 | 33.74416 | 35413 ft | 445 kts | 233° |
| 2026-04-26 14:07 | 61.70007 | 33.64051 | 35408 ft | 445 kts | 233° |
| 2026-04-26 14:08 | 61.66257 | 33.53766 | 35408 ft | 446 kts | 233° |
| 2026-04-26 14:08 | 61.62492 | 33.43482 | 35410 ft | 446 kts | 233° |
| 2026-04-26 14:09 | 61.58705 | 33.33185 | 35398 ft | 446 kts | 232° |
| 2026-04-26 14:09 | 61.54939 | 33.22991 | 35392 ft | 446 kts | 232° |
| 2026-04-26 14:10 | 61.51128 | 33.12727 | 35395 ft | 446 kts | 232° |
| 2026-04-26 14:10 | 61.47230 | 33.02803 | 35383 ft | 447 kts | 228° |
| 2026-04-26 14:11 | 61.40608 | 32.89180 | 35388 ft | 447 kts | 224° |
| 2026-04-26 14:11 | 61.36147 | 32.80249 | 35395 ft | 447 kts | 224° |
| 2026-04-26 14:12 | 61.31570 | 32.71618 | 35402 ft | 448 kts | 218° |
| 2026-04-26 14:12 | 61.26219 | 32.65064 | 35403 ft | 449 kts | 204° |
| 2026-04-26 14:13 | 61.20297 | 32.61255 | 35032 ft | 448 kts | 191° |
| 2026-04-26 14:13 | 61.17223 | 32.60446 | 34813 ft | 446 kts | 185° |
| 2026-04-26 14:13 | 61.14147 | 32.60011 | 34485 ft | 444 kts | 184° |
| 2026-04-26 14:14 | 61.11099 | 32.59620 | 34031 ft | 442 kts | 184° |
| 2026-04-26 14:14 | 61.08033 | 32.59225 | 33463 ft | 443 kts | 185° |
| 2026-04-26 14:14 | 61.04973 | 32.58816 | 32877 ft | 445 kts | 185° |
| 2026-04-26 14:14 | 61.01928 | 32.58395 | 32312 ft | 449 kts | 185° |
| 2026-04-26 14:15 | 60.98808 | 32.57956 | 31676 ft | 453 kts | 184° |
| 2026-04-26 14:15 | 60.95655 | 32.57506 | 31041 ft | 456 kts | 184° |
| 2026-04-26 14:15 | 60.92529 | 32.57052 | 30569 ft | 453 kts | 184° |
| 2026-04-26 14:15 | 60.89389 | 32.56598 | 30040 ft | 453 kts | 184° |
| 2026-04-26 14:16 | 60.86283 | 32.56152 | 29489 ft | 452 kts | 183° |
| 2026-04-26 14:16 | 60.83129 | 32.55701 | 28910 ft | 450 kts | 183° |
| 2026-04-26 14:16 | 60.80057 | 32.55263 | 28517 ft | 444 kts | 183° |
| 2026-04-26 14:16 | 60.77023 | 32.54831 | 28108 ft | 438 kts | 183° |
| 2026-04-26 14:17 | 60.74010 | 32.54388 | 27630 ft | 435 kts | 184° |
| 2026-04-26 14:17 | 60.71013 | 32.53664 | 27108 ft | 433 kts | 187° |
| 2026-04-26 14:17 | 60.68082 | 32.52591 | 26605 ft | 431 kts | 189° |
| 2026-04-26 14:17 | 60.65148 | 32.51462 | 26088 ft | 429 kts | 189° |
| 2026-04-26 14:18 | 60.62238 | 32.50347 | 25559 ft | 427 kts | 189° |
| 2026-04-26 14:18 | 60.59370 | 32.49253 | 25011 ft | 424 kts | 189° |
| 2026-04-26 14:18 | 60.56484 | 32.48156 | 24399 ft | 422 kts | 189° |
| 2026-04-26 14:18 | 60.53596 | 32.47061 | 23798 ft | 419 kts | 189° |
| 2026-04-26 14:19 | 60.50790 | 32.46001 | 23142 ft | 418 kts | 189° |
| 2026-04-26 14:19 | 60.47961 | 32.44932 | 22562 ft | 414 kts | 189° |
| 2026-04-26 14:19 | 60.45151 | 32.43872 | 22044 ft | 409 kts | 189° |
| 2026-04-26 14:19 | 60.42361 | 32.42819 | 21542 ft | 404 kts | 189° |
| 2026-04-26 14:20 | 60.39647 | 32.41798 | 21054 ft | 400 kts | 189° |
| 2026-04-26 14:20 | 60.36948 | 32.40784 | 20575 ft | 395 kts | 189° |
| 2026-04-26 14:20 | 60.34270 | 32.39780 | 20091 ft | 391 kts | 189° |
| 2026-04-26 14:20 | 60.31599 | 32.38778 | 19620 ft | 387 kts | 189° |
| 2026-04-26 14:21 | 60.28997 | 32.37806 | 19151 ft | 384 kts | 189° |
| 2026-04-26 14:21 | 60.26373 | 32.36828 | 18679 ft | 380 kts | 189° |
| 2026-04-26 14:21 | 60.23797 | 32.35869 | 18215 ft | 377 kts | 190° |
| 2026-04-26 14:21 | 60.21249 | 32.34921 | 17763 ft | 374 kts | 189° |
| 2026-04-26 14:22 | 60.18697 | 32.33973 | 17303 ft | 371 kts | 189° |
| 2026-04-26 14:22 | 60.16163 | 32.33033 | 16849 ft | 368 kts | 189° |
| 2026-04-26 14:22 | 60.13675 | 32.32113 | 16405 ft | 365 kts | 189° |
| 2026-04-26 14:22 | 60.11216 | 32.31203 | 15970 ft | 362 kts | 189° |
| 2026-04-26 14:23 | 60.08740 | 32.30241 | 15502 ft | 360 kts | 193° |
| 2026-04-26 14:23 | 60.06524 | 32.28132 | 15021 ft | 357 kts | 219° |
| 2026-04-26 14:23 | 60.05015 | 32.24345 | 14559 ft | 350 kts | 246° |
| 2026-04-26 14:23 | 60.04255 | 32.19796 | 14153 ft | 344 kts | 255° |
| 2026-04-26 14:24 | 60.03565 | 32.15207 | 13748 ft | 342 kts | 255° |
| 2026-04-26 14:24 | 60.02861 | 32.10737 | 13317 ft | 340 kts | 254° |
| 2026-04-26 14:24 | 60.02132 | 32.06277 | 12899 ft | 337 kts | 253° |
| 2026-04-26 14:24 | 60.01391 | 32.01862 | 12486 ft | 334 kts | 253° |
| 2026-04-26 14:25 | 60.00654 | 31.97534 | 12075 ft | 331 kts | 252° |
| 2026-04-26 14:25 | 59.99920 | 31.93255 | 11678 ft | 327 kts | 252° |
| 2026-04-26 14:25 | 59.99179 | 31.88961 | 11260 ft | 324 kts | 252° |
| 2026-04-26 14:25 | 59.98451 | 31.84765 | 10870 ft | 321 kts | 252° |
| 2026-04-26 14:26 | 59.97721 | 31.80561 | 10457 ft | 319 kts | 252° |
| 2026-04-26 14:26 | 59.96997 | 31.76402 | 10050 ft | 316 kts | 252° |
| 2026-04-26 14:26 | 59.96287 | 31.72341 | 9653 ft | 314 kts | 252° |
| 2026-04-26 14:26 | 59.95582 | 31.68309 | 9481 ft | 302 kts | 252° |
| 2026-04-26 14:27 | 59.94898 | 31.64409 | 9355 ft | 290 kts | 252° |
| 2026-04-26 14:27 | 59.94243 | 31.60681 | 9006 ft | 287 kts | 252° |
| 2026-04-26 14:27 | 59.93590 | 31.56964 | 8648 ft | 285 kts | 252° |
| 2026-04-26 14:27 | 59.92932 | 31.53223 | 8288 ft | 283 kts | 252° |
| 2026-04-26 14:28 | 59.92288 | 31.49582 | 7948 ft | 280 kts | 253° |
| 2026-04-26 14:28 | 59.91642 | 31.45942 | 7605 ft | 278 kts | 253° |
| 2026-04-26 14:28 | 59.91004 | 31.42350 | 7257 ft | 276 kts | 253° |
| 2026-04-26 14:28 | 59.90362 | 31.38738 | 6919 ft | 274 kts | 253° |
| 2026-04-26 14:29 | 59.89733 | 31.35208 | 6572 ft | 272 kts | 254° |
| 2026-04-26 14:29 | 59.89103 | 31.31667 | 6233 ft | 270 kts | 253° |
| 2026-04-26 14:29 | 59.88476 | 31.28156 | 5892 ft | 269 kts | 253° |
| 2026-04-26 14:29 | 59.87843 | 31.24638 | 5632 ft | 265 kts | 255° |
| 2026-04-26 14:30 | 59.87239 | 31.21288 | 5502 ft | 255 kts | 255° |
| 2026-04-26 14:30 | 59.86642 | 31.18056 | 5404 ft | 246 kts | 251° |
| 2026-04-26 14:30 | 59.85577 | 31.15341 | 5373 ft | 257 kts | 214° |
| 2026-04-26 14:30 | 59.83965 | 31.13847 | 5391 ft | 259 kts | 201° |
| 2026-04-26 14:31 | 59.82270 | 31.12609 | 5389 ft | 260 kts | 201° |
| 2026-04-26 14:31 | 59.80592 | 31.11359 | 5389 ft | 261 kts | 202° |
| 2026-04-26 14:31 | 59.78892 | 31.10028 | 5384 ft | 260 kts | 203° |
| 2026-04-26 14:31 | 59.77233 | 31.08682 | 5390 ft | 261 kts | 204° |
| 2026-04-26 14:32 | 59.75509 | 31.07538 | 5397 ft | 263 kts | 193° |
| 2026-04-26 14:32 | 59.73694 | 31.06995 | 5394 ft | 263 kts | 186° |
| 2026-04-26 14:32 | 59.71895 | 31.06651 | 5389 ft | 262 kts | 185° |
| 2026-04-26 14:32 | 59.70084 | 31.06333 | 5392 ft | 263 kts | 185° |
| 2026-04-26 14:33 | 59.68268 | 31.05898 | 5391 ft | 262 kts | 194° |
| 2026-04-26 14:33 | 59.66577 | 31.04661 | 5373 ft | 257 kts | 209° |
| 2026-04-26 14:33 | 59.65212 | 31.02610 | 5028 ft | 247 kts | 242° |
| 2026-04-26 14:33 | 59.64745 | 30.99514 | 4616 ft | 229 kts | 283° |
| 2026-04-26 14:34 | 59.65199 | 30.96677 | 4256 ft | 214 kts | 306° |
| 2026-04-26 14:34 | 59.65918 | 30.94108 | 3943 ft | 213 kts | 307° |
| 2026-04-26 14:34 | 59.66605 | 30.91538 | 3598 ft | 213 kts | 305° |
| 2026-04-26 14:34 | 59.67257 | 30.88937 | 3325 ft | 210 kts | 304° |
| 2026-04-26 14:35 | 59.67886 | 30.86359 | 3059 ft | 208 kts | 304° |
| 2026-04-26 14:35 | 59.68502 | 30.83790 | 2744 ft | 207 kts | 304° |
| 2026-04-26 14:35 | 59.69105 | 30.81225 | 2479 ft | 204 kts | 304° |
| 2026-04-26 14:35 | 59.69698 | 30.78693 | 2432 ft | 203 kts | 304° |
| 2026-04-26 14:36 | 59.70280 | 30.76190 | 2429 ft | 200 kts | 304° |
| 2026-04-26 14:36 | 59.70857 | 30.73698 | 2439 ft | 198 kts | 304° |
| 2026-04-26 14:36 | 59.71435 | 30.71198 | 2446 ft | 198 kts | 304° |
| 2026-04-26 14:36 | 59.72002 | 30.68737 | 2454 ft | 197 kts | 304° |
| 2026-04-26 14:37 | 59.72607 | 30.66320 | 2453 ft | 193 kts | 311° |
| 2026-04-26 14:37 | 59.73301 | 30.64082 | 2449 ft | 192 kts | 308° |
| 2026-04-26 14:37 | 59.73859 | 30.61736 | 2437 ft | 184 kts | 302° |
| 2026-04-26 14:37 | 59.74329 | 30.59386 | 2458 ft | 184 kts | 301° |
| 2026-04-26 14:38 | 59.74772 | 30.56984 | 2465 ft | 186 kts | 300° |
| 2026-04-26 14:38 | 59.75170 | 30.54545 | 2468 ft | 187 kts | 298° |
| 2026-04-26 14:38 | 59.75540 | 30.52093 | 2470 ft | 187 kts | 297° |
| 2026-04-26 14:38 | 59.75902 | 30.49604 | 2392 ft | 184 kts | 297° |
| 2026-04-26 14:39 | 59.76241 | 30.47233 | 2208 ft | 175 kts | 297° |
| 2026-04-26 14:39 | 59.76566 | 30.44989 | 1936 ft | 166 kts | 297° |
| 2026-04-26 14:39 | 59.76870 | 30.42892 | 1668 ft | 152 kts | 297° |
| 2026-04-26 14:39 | 59.77146 | 30.40991 | 1475 ft | 134 kts | 298° |
| 2026-04-26 14:40 | 59.77395 | 30.39300 | 1276 ft | 125 kts | 298° |
| 2026-04-26 14:40 | 59.77645 | 30.37644 | 1116 ft | 125 kts | 298° |
| 2026-04-26 14:40 | 59.77888 | 30.36005 | 957 ft | 124 kts | 298° |
| 2026-04-26 14:40 | 59.78131 | 30.34361 | 792 ft | 124 kts | 296° |
| 2026-04-26 14:41 | 59.78374 | 30.32711 | 613 ft | 124 kts | 295° |
| 2026-04-26 14:41 | 59.78617 | 30.31077 | 439 ft | 124 kts | 293° |
| 2026-04-26 14:41 | 59.78857 | 30.29446 | 257 ft | 121 kts | 293° |
| 2026-04-26 14:41 | 59.79089 | 30.27873 | 104 ft | 116 kts | 294° |
| 2026-04-26 14:42 | 59.79301 | 30.26502 | 86 ft | 83 kts | 286° |
| 2026-04-26 14:42 | 59.79412 | 30.25736 | 84 ft | 30 kts | 291° |
| 2026-04-26 14:42 | 59.79446 | 30.25516 | 83 ft | 12 kts | 286° |
| 2026-04-26 14:42 | 59.79471 | 30.25349 | 83 ft | 12 kts | 287° |
| 2026-04-26 14:43 | 59.79497 | 30.25175 | 83 ft | 13 kts | 286° |
| 2026-04-26 14:43 | 59.79527 | 30.24977 | 82 ft | 15 kts | 285° |
| 2026-04-26 14:43 | 59.79559 | 30.24757 | 82 ft | 17 kts | 286° |
| 2026-04-26 14:43 | 59.79594 | 30.24522 | 82 ft | 18 kts | 286° |
| 2026-04-26 14:44 | 59.79630 | 30.24275 | 82 ft | 19 kts | 286° |
| 2026-04-26 14:44 | 59.79668 | 30.24014 | 81 ft | 20 kts | 286° |
| 2026-04-26 14:44 | 59.79709 | 30.23743 | 81 ft | 21 kts | 286° |
| 2026-04-26 14:44 | 59.79752 | 30.23459 | 80 ft | 21 kts | 289° |
| 2026-04-26 14:45 | 59.79827 | 30.23207 | 80 ft | 21 kts | 312° |
| 2026-04-26 14:45 | 59.79883 | 30.23092 | 80 ft | 11 kts | 314° |
| 2026-04-26 14:45 | 59.79909 | 30.23041 | 80 ft | 0 kts | 320° |
| 2026-04-26 14:46 | 59.79911 | 30.23037 | 80 ft | 1 kts | 321° |
| 2026-04-26 14:47 | 59.79926 | 30.23022 | 80 ft | 3 kts | 342° |
| 2026-04-26 14:47 | 59.79955 | 30.23026 | 80 ft | 4 kts | 21° |
| 2026-04-26 14:47 | 59.79976 | 30.23072 | 80 ft | 4 kts | 69° |
| 2026-04-26 14:47 | 59.79974 | 30.23153 | 80 ft | 7 kts | 105° |
| 2026-04-26 14:48 | 59.79958 | 30.23271 | 81 ft | 10 kts | 107° |
| 2026-04-26 14:48 | 59.79933 | 30.23432 | 81 ft | 13 kts | 106° |
| 2026-04-26 14:48 | 59.79906 | 30.23615 | 81 ft | 14 kts | 106° |
| 2026-04-26 14:48 | 59.79876 | 30.23815 | 81 ft | 15 kts | 106° |
| 2026-04-26 14:49 | 59.79844 | 30.24030 | 81 ft | 16 kts | 106° |
| 2026-04-26 14:49 | 59.79811 | 30.24258 | 82 ft | 17 kts | 106° |
| 2026-04-26 14:49 | 59.79776 | 30.24492 | 83 ft | 17 kts | 106° |
| 2026-04-26 14:49 | 59.79742 | 30.24723 | 84 ft | 17 kts | 106° |
| 2026-04-26 14:50 | 59.79707 | 30.24951 | 85 ft | 17 kts | 106° |
| 2026-04-26 14:50 | 59.79674 | 30.25180 | 87 ft | 17 kts | 105° |
| 2026-04-26 14:50 | 59.79640 | 30.25411 | 87 ft | 18 kts | 106° |
| 2026-04-26 14:50 | 59.79603 | 30.25654 | 86 ft | 19 kts | 106° |
| 2026-04-26 14:51 | 59.79565 | 30.25914 | 85 ft | 20 kts | 106° |
| 2026-04-26 14:51 | 59.79539 | 30.26087 | 86 ft | 12 kts | 106° |
| 2026-04-26 14:51 | 59.79514 | 30.26258 | 87 ft | 8 kts | 105° |
| 2026-04-26 14:51 | 59.79529 | 30.26362 | 87 ft | 8 kts | 21° |
| 2026-04-26 14:52 | 59.79591 | 30.26399 | 87 ft | 9 kts | 16° |
| 2026-04-26 14:52 | 59.79660 | 30.26439 | 87 ft | 11 kts | 16° |
| 2026-04-26 14:52 | 59.79715 | 30.26471 | 87 ft | 8 kts | 15° |
| 2026-04-26 14:52 | 59.79739 | 30.26485 | 87 ft | 3 kts | 16° |
| 2026-04-26 14:53 | 59.79754 | 30.26519 | 87 ft | 3 kts | 77° |
| 2026-04-26 14:53 | 59.79747 | 30.26599 | 86 ft | 3 kts | 105° |
| 2026-04-26 14:53 | 59.79746 | 30.26605 | 86 ft | 0 kts | 105° |